createdAt,value
2023-12-02T00:00:26.766Z,4.22
2023-12-02T00:02:53.868Z,4.63
2023-12-02T00:05:20.697Z,6.50
2023-12-02T00:07:47.505Z,5.22
2023-12-02T00:10:14.353Z,2.38
2023-12-02T00:12:41.173Z,5.60
2023-12-02T00:15:08.663Z,3.80
2023-12-02T00:17:35.583Z,6.22
2023-12-02T00:20:02.925Z,4.70
2023-12-02T00:22:29.704Z,4.88
2023-12-02T00:24:56.396Z,4.95
2023-12-02T00:27:23.193Z,5.50
2023-12-02T00:29:49.918Z,3.42
2023-12-02T00:32:28.007Z,5.57
2023-12-02T00:34:57.118Z,5.43
2023-12-02T00:37:24.350Z,5.18
2023-12-02T00:39:51.071Z,6.75
2023-12-02T00:42:18.284Z,8.63
2023-12-02T00:44:45.068Z,7.68
2023-12-02T00:47:11.872Z,6.55
2023-12-02T00:49:38.691Z,5.78
2023-12-02T00:52:05.599Z,3.28
2023-12-02T00:54:35.282Z,5.32
2023-12-02T00:57:02.382Z,4.28
2023-12-02T00:59:29.192Z,4.97
2023-12-02T01:01:55.935Z,8.50
2023-12-02T01:04:22.818Z,6.63
2023-12-02T01:06:49.570Z,4.13
2023-12-02T01:09:17.070Z,4.10
2023-12-02T01:11:43.939Z,4.22
2023-12-02T01:14:10.666Z,4.72
2023-12-02T01:16:37.409Z,5.93
2023-12-02T01:19:04.102Z,5.03
2023-12-02T01:21:31.294Z,3.92
2023-12-02T01:23:58.923Z,6.40
2023-12-02T01:26:25.808Z,5.68
2023-12-02T01:28:53.668Z,5.70
2023-12-02T01:31:20.797Z,4.25
2023-12-02T01:33:47.597Z,5.82
2023-12-02T01:36:15.663Z,3.40
2023-12-02T01:38:43.493Z,5.50
2023-12-02T01:41:10.199Z,6.80
2023-12-02T01:43:39.157Z,4.57
2023-12-02T01:46:06.909Z,5.72
2023-12-02T01:48:37.302Z,5.45
2023-12-02T01:51:05.426Z,3.90
2023-12-02T01:53:32.479Z,3.50
2023-12-02T01:55:59.594Z,5.95
2023-12-02T01:58:26.805Z,5.53
2023-12-02T02:00:53.560Z,4.18
2023-12-02T02:03:20.391Z,4.35
2023-12-02T02:05:48.082Z,3.22
2023-12-02T02:08:15.138Z,4.38
2023-12-02T02:10:41.878Z,6.55
2023-12-02T02:13:08.831Z,4.97
2023-12-02T02:15:35.699Z,2.83
2023-12-02T02:18:02.573Z,3.70
2023-12-02T02:20:29.611Z,3.65
2023-12-02T02:22:56.392Z,4.55
2023-12-02T02:25:23.071Z,4.38
2023-12-02T02:27:49.854Z,4.07
2023-12-02T02:30:16.720Z,4.03
2023-12-02T02:32:43.503Z,3.92
2023-12-02T02:35:11.918Z,3.38
2023-12-02T02:37:38.706Z,3.60
2023-12-02T02:40:07.012Z,3.08
2023-12-02T02:42:34.308Z,3.63
2023-12-02T02:45:01.128Z,3.42
2023-12-02T02:47:28.548Z,4.22
2023-12-02T02:49:55.314Z,3.40
2023-12-02T02:52:23.395Z,2.10
2023-12-02T02:54:50.108Z,3.33
2023-12-02T02:57:21.088Z,3.38
2023-12-02T02:59:47.821Z,2.65
2023-12-02T03:02:14.589Z,2.83
2023-12-02T03:04:44.841Z,2.15
2023-12-02T03:07:12.176Z,3.53
2023-12-02T03:09:38.965Z,3.38
2023-12-02T03:12:06.660Z,1.98
2023-12-02T03:14:33.384Z,3.08
2023-12-02T03:17:00.069Z,2.92
2023-12-02T03:19:26.924Z,4.95
2023-12-02T03:21:53.724Z,2.47
2023-12-02T03:24:21.192Z,4.20
2023-12-02T03:26:48.153Z,3.22
2023-12-02T03:29:14.870Z,2.15
2023-12-02T03:31:41.631Z,1.95
2023-12-02T03:34:08.390Z,2.60
2023-12-02T03:36:35.596Z,2.75
2023-12-02T03:39:02.601Z,3.85
2023-12-02T03:41:29.720Z,1.95
2023-12-02T03:43:58.966Z,2.72
2023-12-02T03:46:29.571Z,2.65
2023-12-02T03:48:57.226Z,2.15
2023-12-02T03:51:24.728Z,2.65
2023-12-02T03:53:51.714Z,2.38
2023-12-02T03:56:18.542Z,2.88
2023-12-02T03:58:45.206Z,2.50
2023-12-02T04:01:12.078Z,2.88
2023-12-02T04:03:39.096Z,3.33
2023-12-02T04:06:09.009Z,3.17
2023-12-02T04:08:35.917Z,2.83
2023-12-02T04:11:02.688Z,3.45
2023-12-02T04:13:29.396Z,2.53
2023-12-02T04:15:56.385Z,2.92
2023-12-02T04:18:23.310Z,2.38
2023-12-02T04:20:50.068Z,4.30
2023-12-02T04:23:16.894Z,2.50
2023-12-02T04:25:43.621Z,1.85
2023-12-02T04:28:10.307Z,2.83
2023-12-02T04:30:37.241Z,3.85
2023-12-02T04:33:05.308Z,2.70
2023-12-02T04:35:37.319Z,2.72
2023-12-02T04:38:06.058Z,2.30
2023-12-02T04:40:34.207Z,3.30
2023-12-02T04:43:01.129Z,1.98
2023-12-02T04:45:30.872Z,2.58
2023-12-02T04:47:59.993Z,2.65
2023-12-02T04:50:27.209Z,3.08
2023-12-02T04:52:54.030Z,2.10
2023-12-02T04:55:21.545Z,3.65
2023-12-02T04:57:48.236Z,3.83
2023-12-02T05:00:16.269Z,2.60
2023-12-02T05:02:43.663Z,3.85
2023-12-02T05:05:11.359Z,3.05
2023-12-02T05:07:38.377Z,2.78
2023-12-02T05:10:06.948Z,2.22
2023-12-02T05:12:33.885Z,4.07
2023-12-02T05:15:00.859Z,2.90
2023-12-02T05:17:28.877Z,2.30
2023-12-02T05:19:55.963Z,1.63
2023-12-02T05:22:22.755Z,2.95
2023-12-02T05:24:49.504Z,2.25
2023-12-02T05:27:16.412Z,2.95
2023-12-02T05:29:43.134Z,2.47
2023-12-02T05:32:09.879Z,3.25
2023-12-02T05:34:37.362Z,3.50
2023-12-02T05:37:04.492Z,2.72
2023-12-02T05:39:31.253Z,2.78
2023-12-02T05:41:58.200Z,2.20
2023-12-02T05:44:25.020Z,3.45
2023-12-02T05:46:52.248Z,1.75
2023-12-02T05:49:19.090Z,1.77
2023-12-02T05:51:45.937Z,5.70
2023-12-02T05:54:12.802Z,2.55
2023-12-02T05:56:39.529Z,4.00
2023-12-02T05:59:06.191Z,4.00
2023-12-02T06:01:32.938Z,2.28
2023-12-02T06:03:59.779Z,4.13
2023-12-02T06:06:27.243Z,2.38
2023-12-02T06:08:54.105Z,3.92
2023-12-02T06:11:21.454Z,4.90
2023-12-02T06:13:48.381Z,3.08
2023-12-02T06:16:15.077Z,3.35
2023-12-02T06:18:41.889Z,3.22
2023-12-02T06:21:08.975Z,3.30
2023-12-02T06:23:35.739Z,3.13
2023-12-02T06:26:02.500Z,3.95
2023-12-02T06:28:29.170Z,1.75
2023-12-02T06:30:55.975Z,2.35
2023-12-02T06:33:22.804Z,2.15
2023-12-02T06:35:50.377Z,4.30
2023-12-02T06:38:17.575Z,2.47
2023-12-02T06:40:44.303Z,2.70
2023-12-02T06:43:13.512Z,1.65
2023-12-02T06:45:40.219Z,2.40
2023-12-02T06:48:07.005Z,2.75
2023-12-02T06:50:34.811Z,2.53
2023-12-02T06:53:01.565Z,3.55
2023-12-02T06:55:32.729Z,3.15
2023-12-02T06:58:00.428Z,1.95
2023-12-02T07:00:27.594Z,2.45
2023-12-02T07:02:54.714Z,3.08
2023-12-02T07:05:22.273Z,1.55
2023-12-02T07:07:49.534Z,2.45
2023-12-02T07:10:16.344Z,3.05
2023-12-02T07:12:43.151Z,4.07
2023-12-02T07:18:35.308Z,2.33
2023-12-02T07:21:02.214Z,2.35
2023-12-02T07:23:35.270Z,3.75
2023-12-02T07:26:02.065Z,3.05
2023-12-02T07:28:28.759Z,4.43
2023-12-02T07:30:56.526Z,2.55
2023-12-02T07:33:24.253Z,2.53
2023-12-02T07:35:51.743Z,2.47
2023-12-02T07:38:18.858Z,4.60
2023-12-02T07:40:45.592Z,5.30
2023-12-02T07:43:12.573Z,3.03
2023-12-02T07:45:39.361Z,3.60
2023-12-02T07:48:06.445Z,3.30
2023-12-02T07:50:33.224Z,2.80
2023-12-02T07:53:00.148Z,3.83
2023-12-02T07:55:27.052Z,2.75
2023-12-02T07:57:54.345Z,2.58
2023-12-02T08:00:21.403Z,4.63
2023-12-02T08:02:48.515Z,2.45
2023-12-02T08:07:47.538Z,5.47
2023-12-02T08:10:14.516Z,2.33
2023-12-02T08:12:41.200Z,3.72
2023-12-02T08:15:08.634Z,1.55
2023-12-02T08:17:36.442Z,3.33
2023-12-02T08:20:04.618Z,3.33
2023-12-02T08:22:31.558Z,2.13
2023-12-02T08:24:58.702Z,4.30
2023-12-02T08:27:25.464Z,5.70
2023-12-02T08:29:52.217Z,2.70
2023-12-02T08:32:18.916Z,3.92
2023-12-02T08:34:46.411Z,4.65
2023-12-02T08:37:13.637Z,3.97
2023-12-02T08:39:40.311Z,1.83
2023-12-02T08:42:07.465Z,2.92
2023-12-02T08:44:34.183Z,2.25
2023-12-02T08:47:02.587Z,3.80
2023-12-02T08:49:29.626Z,2.15
2023-12-02T08:51:57.468Z,3.20
2023-12-02T08:54:24.337Z,1.85
2023-12-02T08:56:51.192Z,3.70
2023-12-02T08:59:18.092Z,4.18
2023-12-02T09:01:45.086Z,2.92
2023-12-02T09:04:12.018Z,2.58
2023-12-02T09:06:41.729Z,2.35
2023-12-02T09:09:09.100Z,3.38
2023-12-02T09:11:36.046Z,2.58
2023-12-02T09:14:02.997Z,2.40
2023-12-02T09:16:31.236Z,3.13
2023-12-02T09:18:58.276Z,1.83
2023-12-02T09:21:41.599Z,4.22
2023-12-02T09:24:37.457Z,2.40
2023-12-02T09:27:07.470Z,4.07
2023-12-02T09:29:39.733Z,4.60
2023-12-02T09:32:24.912Z,3.08
2023-12-02T09:35:01.965Z,3.88
2023-12-02T09:37:53.560Z,4.00
2023-12-02T09:40:26.692Z,2.35
2023-12-02T09:43:04.859Z,3.70
2023-12-02T09:45:43.487Z,3.40
2023-12-02T09:48:28.879Z,4.05
2023-12-02T09:51:01.355Z,2.60
2023-12-02T09:53:47.704Z,2.35
2023-12-02T09:56:25.780Z,3.17
2023-12-02T09:59:10.320Z,4.15
2023-12-02T10:01:44.152Z,3.97
2023-12-02T10:05:09.784Z,4.57
2023-12-02T10:07:58.436Z,3.03
2023-12-02T10:10:29.438Z,2.50
2023-12-02T10:13:30.731Z,4.75
2023-12-02T10:16:03.413Z,3.13
2023-12-02T10:18:38.612Z,2.40
2023-12-02T10:21:11.686Z,2.85
2023-12-02T10:23:52.572Z,1.60
2023-12-02T10:26:27.949Z,3.03
2023-12-02T10:29:20.154Z,4.65
2023-12-02T10:32:13.339Z,2.55
2023-12-02T10:35:41.337Z,3.17
2023-12-02T10:38:32.285Z,1.80
2023-12-02T10:41:02.017Z,3.03
2023-12-02T10:43:42.980Z,3.30
2023-12-02T10:46:09.795Z,2.42
2023-12-02T10:48:38.220Z,2.45
2023-12-02T10:51:07.719Z,2.05
2023-12-02T10:53:37.698Z,2.97
2023-12-02T10:56:13.274Z,3.47
2023-12-02T10:58:42.724Z,4.63
2023-12-02T11:01:10.926Z,4.38
2023-12-02T11:04:04.510Z,2.00
2023-12-02T11:06:39.062Z,3.15
2023-12-02T11:09:18.096Z,3.47
2023-12-02T11:12:06.576Z,3.72
2023-12-02T11:14:39.969Z,4.13
2023-12-02T11:17:11.613Z,2.85
2023-12-02T11:19:45.953Z,3.03
2023-12-02T11:22:45.676Z,4.35
2023-12-02T11:25:47.191Z,4.47
2023-12-02T11:28:32.169Z,4.00
2023-12-02T11:31:12.056Z,4.50
2023-12-02T11:34:16.588Z,3.35
2023-12-02T11:36:55.049Z,3.20
2023-12-02T11:39:40.612Z,3.53
2023-12-02T11:42:17.076Z,4.88
2023-12-02T11:45:08.261Z,3.72
2023-12-02T11:48:12.381Z,3.42
2023-12-02T11:51:15.084Z,3.95
2023-12-02T11:54:00.536Z,5.93
2023-12-02T11:56:28.001Z,3.25
2023-12-02T11:59:17.635Z,2.75
2023-12-02T12:02:16.141Z,4.00
2023-12-02T12:05:09.228Z,4.40
2023-12-02T12:08:01.019Z,2.92
2023-12-02T12:10:38.296Z,3.38
2023-12-02T12:13:09.958Z,2.60
2023-12-02T12:15:38.024Z,2.35
2023-12-02T12:18:05.941Z,2.85
2023-12-02T12:20:33.120Z,2.15
2023-12-02T12:23:01.232Z,4.00
2023-12-02T12:25:30.908Z,4.35
2023-12-02T12:28:04.749Z,1.75
2023-12-02T12:30:57.783Z,2.10
2023-12-02T12:33:24.596Z,2.45
2023-12-02T12:35:51.481Z,5.03
2023-12-02T12:38:18.853Z,2.50
2023-12-02T12:40:46.442Z,3.70
2023-12-02T12:43:14.269Z,3.08
2023-12-02T12:45:42.013Z,3.25
2023-12-02T12:48:09.224Z,2.78
2023-12-02T12:50:39.061Z,3.20
2023-12-02T12:53:13.774Z,2.35
2023-12-02T12:55:58.847Z,2.45
2023-12-02T12:58:28.288Z,3.58
2023-12-02T13:00:59.201Z,4.60
2023-12-02T13:03:38.122Z,2.58
2023-12-02T13:06:07.767Z,2.75
2023-12-02T13:08:38.766Z,3.83
2023-12-02T13:11:18.833Z,3.95
2023-12-02T13:14:32.536Z,3.33
2023-12-02T13:17:01.770Z,4.03
2023-12-02T13:19:30.974Z,3.05
2023-12-02T13:22:02.371Z,4.65
2023-12-02T13:24:33.262Z,3.33
2023-12-02T13:27:00.011Z,2.35
2023-12-02T13:29:28.429Z,3.55
2023-12-02T13:31:57.152Z,2.95
2023-12-02T13:34:39.859Z,3.22
2023-12-02T13:37:07.677Z,2.92
2023-12-02T13:39:35.998Z,3.30
2023-12-02T13:42:13.024Z,3.00
2023-12-02T13:44:50.158Z,2.75
2023-12-02T13:47:30.981Z,4.20
2023-12-02T13:50:00.542Z,3.90
2023-12-02T13:53:05.052Z,2.50
2023-12-02T13:56:01.388Z,4.10
2023-12-02T13:58:40.929Z,2.88
2023-12-02T14:01:10.436Z,4.30
2023-12-02T14:04:01.341Z,3.50
2023-12-02T14:06:44.286Z,2.08
2023-12-02T14:09:11.128Z,2.65
2023-12-02T14:12:05.911Z,2.75
2023-12-02T14:14:53.569Z,4.30
2023-12-02T14:17:51.502Z,3.30
2023-12-02T14:23:20.096Z,3.67
2023-12-02T14:26:03.160Z,2.33
2023-12-02T14:28:56.977Z,3.78
2023-12-02T14:31:34.125Z,3.40
2023-12-02T14:34:38.849Z,2.05
2023-12-02T14:37:46.776Z,3.47
2023-12-02T14:40:31.929Z,3.58
2023-12-02T14:43:28.528Z,3.28
2023-12-02T14:45:58.423Z,4.50
2023-12-02T14:48:28.782Z,3.17
2023-12-02T15:50:58.109Z,9.75
2023-12-02T15:53:29.077Z,11.10
2023-12-02T15:55:58.246Z,5.30
2023-12-02T15:58:26.308Z,12.30
2023-12-02T16:00:53.897Z,12.23
2023-12-02T16:03:24.779Z,12.18
2023-12-02T16:05:51.698Z,12.75
2023-12-02T16:08:19.088Z,12.07
2023-12-02T16:10:59.654Z,12.68
2023-12-02T16:13:29.202Z,13.02
2023-12-02T16:15:55.996Z,6.57
2023-12-02T16:18:23.004Z,12.27
2023-12-02T16:20:49.887Z,13.63
2023-12-02T16:23:16.679Z,13.02
2023-12-02T16:25:43.776Z,4.88
2023-12-02T16:28:11.916Z,4.38
2023-12-02T16:30:41.552Z,4.20
2023-12-02T16:33:09.011Z,3.67
2023-12-02T16:35:41.501Z,4.85
2023-12-02T16:38:08.405Z,4.45
2023-12-02T16:40:35.436Z,4.18
2023-12-02T16:43:02.224Z,4.05
2023-12-02T16:45:29.107Z,4.80
2023-12-02T16:47:56.721Z,4.72
2023-12-02T16:50:23.487Z,5.13
2023-12-02T16:52:55.817Z,4.57
2023-12-02T16:55:30.405Z,5.05
2023-12-02T16:57:58.136Z,3.75
2023-12-02T17:00:36.202Z,4.95
2023-12-02T17:03:05.245Z,3.97
2023-12-02T17:05:31.977Z,3.58
2023-12-02T17:08:25.861Z,4.93
2023-12-02T17:11:01.696Z,3.30
2023-12-02T17:13:44.644Z,3.05
2023-12-02T17:16:36.107Z,5.30
2023-12-02T17:19:10.387Z,3.28
2023-12-02T17:21:37.538Z,3.20
2023-12-02T17:24:08.862Z,3.00
2023-12-02T17:26:35.711Z,4.65
2023-12-02T17:29:03.074Z,3.15
2023-12-02T17:31:29.901Z,3.45
2023-12-02T17:33:56.722Z,4.75
2023-12-02T17:36:23.500Z,3.95
2023-12-02T17:38:50.295Z,2.97
2023-12-02T17:41:17.184Z,7.25
2023-12-02T17:43:43.905Z,5.13
2023-12-02T17:46:10.827Z,4.70
2023-12-02T17:48:37.711Z,5.80
2023-12-02T17:51:04.787Z,6.22
2023-12-02T17:53:31.529Z,4.65
2023-12-02T17:55:58.252Z,4.30
2023-12-02T17:58:25.225Z,4.65
2023-12-02T18:00:51.980Z,3.63
2023-12-02T18:03:18.998Z,3.72
2023-12-02T18:05:45.718Z,5.85
2023-12-02T18:08:12.418Z,4.78
2023-12-02T18:10:39.207Z,3.35
2023-12-02T18:13:06.033Z,5.00
2023-12-02T18:15:33.550Z,3.47
2023-12-02T18:18:00.444Z,4.00
2023-12-02T18:20:27.441Z,4.10
2023-12-02T18:22:54.201Z,3.55
2023-12-02T18:25:20.953Z,4.25
2023-12-02T18:27:47.708Z,3.28
2023-12-02T18:30:15.188Z,4.30
2023-12-02T18:32:42.084Z,3.65
2023-12-02T18:35:09.292Z,3.35
2023-12-02T18:37:36.059Z,3.90
2023-12-02T18:40:05.092Z,5.38
2023-12-02T18:42:31.799Z,5.00
2023-12-02T18:44:58.497Z,4.38
2023-12-02T18:47:25.201Z,5.57
2023-12-02T18:49:51.994Z,4.40
2023-12-02T18:52:18.730Z,5.55
2023-12-02T18:54:45.565Z,2.88
2023-12-02T18:57:12.293Z,5.60
2023-12-02T18:59:39.018Z,5.75
2023-12-02T19:02:05.957Z,5.00
2023-12-02T19:04:32.663Z,3.78
2023-12-02T19:06:59.401Z,4.78
2023-12-02T19:09:26.124Z,6.60
2023-12-02T19:11:52.879Z,3.65
2023-12-02T19:14:19.584Z,6.20
2023-12-02T19:16:47.167Z,4.63
2023-12-02T19:19:13.967Z,4.35
2023-12-02T19:21:40.853Z,4.72
2023-12-02T19:24:08.087Z,4.00
2023-12-02T19:26:35.536Z,3.28
2023-12-02T19:29:02.345Z,3.75
2023-12-02T19:31:29.094Z,3.95
2023-12-02T19:33:55.924Z,4.68
2023-12-02T19:36:22.745Z,2.95
2023-12-02T19:38:49.393Z,4.13
2023-12-02T19:41:16.090Z,3.47
2023-12-02T19:43:43.170Z,4.20
2023-12-02T19:46:09.890Z,4.38
2023-12-02T19:48:36.752Z,2.83
2023-12-02T19:51:05.751Z,3.08
2023-12-02T19:53:34.123Z,4.13
2023-12-02T19:56:00.906Z,3.30
2023-12-02T19:58:27.638Z,4.18
2023-12-02T20:00:54.353Z,2.45
2023-12-02T20:03:21.227Z,4.32
2023-12-02T20:05:48.353Z,3.67
2023-12-02T20:08:15.428Z,3.30
2023-12-02T20:10:42.196Z,4.55
2023-12-02T20:13:08.896Z,3.28
2023-12-02T20:15:35.656Z,3.80
2023-12-02T20:18:02.416Z,2.40
2023-12-02T20:20:29.237Z,3.63
2023-12-02T20:22:56.070Z,2.85
2023-12-02T20:25:22.748Z,2.70
2023-12-02T20:27:49.643Z,2.60
2023-12-02T20:30:17.729Z,4.28
2023-12-02T20:32:46.394Z,3.30
2023-12-02T20:35:13.332Z,3.88
2023-12-02T20:37:40.030Z,3.92
2023-12-02T20:40:07.407Z,5.45
2023-12-02T20:42:34.806Z,4.20
2023-12-02T20:45:04.342Z,2.78
2023-12-02T20:47:32.445Z,2.10
2023-12-02T20:49:59.298Z,4.05
2023-12-02T20:52:26.056Z,3.00
2023-12-02T20:54:53.405Z,4.13
2023-12-02T20:57:20.105Z,3.75
2023-12-02T20:59:46.943Z,4.00
2023-12-02T21:02:13.684Z,4.25
2023-12-02T21:04:40.784Z,3.38
2023-12-02T21:07:08.915Z,3.67
2023-12-02T21:09:36.056Z,3.13
2023-12-02T21:12:02.855Z,3.08
2023-12-02T21:14:29.524Z,2.22
2023-12-02T21:16:56.382Z,3.70
2023-12-02T21:19:23.510Z,2.53
2023-12-02T21:21:50.325Z,4.20
2023-12-02T21:24:17.231Z,3.75
2023-12-02T21:26:46.976Z,2.90
2023-12-02T21:29:13.727Z,3.13
2023-12-02T21:31:40.557Z,2.22
2023-12-02T21:34:11.834Z,1.70
2023-12-02T21:36:38.723Z,3.55
2023-12-02T21:39:05.619Z,2.97
2023-12-02T21:41:32.849Z,2.42
2023-12-02T21:43:59.637Z,2.17
2023-12-02T21:46:31.056Z,1.88
2023-12-02T21:48:59.246Z,3.25
2023-12-02T21:51:28.590Z,2.38
2023-12-02T21:54:04.549Z,1.67
2023-12-02T21:56:45.118Z,3.60
2023-12-02T21:59:17.268Z,2.05
2023-12-02T22:01:46.540Z,1.77
2023-12-02T22:04:18.499Z,4.22
2023-12-02T22:06:46.434Z,2.55
2023-12-02T22:09:19.299Z,4.32
2023-12-02T22:11:46.092Z,2.58
2023-12-02T22:14:23.913Z,1.38
2023-12-02T22:16:57.358Z,2.78
2023-12-02T22:19:24.628Z,1.83
2023-12-02T22:21:52.751Z,3.08
2023-12-02T22:24:20.268Z,2.72
2023-12-02T22:26:49.065Z,3.22
2023-12-02T22:29:28.107Z,2.20
2023-12-02T22:31:57.271Z,3.22
2023-12-02T22:34:24.619Z,1.98
2023-12-02T22:36:52.806Z,4.38
2023-12-02T22:39:28.108Z,3.88
2023-12-02T22:42:00.448Z,3.90
2023-12-02T22:44:27.136Z,4.88
2023-12-02T22:47:03.084Z,2.75
2023-12-02T22:49:34.022Z,2.43
2023-12-02T22:52:01.205Z,1.80
2023-12-02T22:54:39.625Z,1.65
2023-12-02T22:57:12.546Z,2.38
2023-12-02T22:59:40.976Z,2.17
2023-12-02T23:02:12.889Z,3.95
2023-12-02T23:04:43.477Z,2.28
2023-12-02T23:07:16.382Z,2.15
2023-12-02T23:09:49.547Z,1.35
2023-12-02T23:12:37.183Z,2.72
2023-12-02T23:15:40.622Z,2.55
2023-12-02T23:18:14.394Z,2.78
2023-12-02T23:20:48.428Z,3.03
2023-12-02T23:23:15.339Z,2.13
2023-12-02T23:25:42.564Z,2.17
2023-12-02T23:28:10.095Z,3.13
2023-12-02T23:30:36.841Z,1.95
2023-12-02T23:33:04.108Z,3.15
2023-12-02T23:35:30.935Z,3.28
2023-12-02T23:37:57.871Z,2.10
2023-12-02T23:40:27.873Z,3.05
2023-12-02T23:42:56.043Z,2.22
2023-12-02T23:45:22.995Z,3.30
2023-12-02T23:47:51.146Z,2.53
2023-12-02T23:50:21.573Z,4.85
2023-12-02T23:52:48.924Z,3.75
2023-12-02T23:55:15.960Z,4.75
2023-12-02T23:57:44.547Z,2.88
